sensor_id;sensor_type;location;lat;lon;timestamp;pressure;altitude;pressure_sealevel;temperature;humidity
5126;BME280;63008;53.112;8.896;2022-10-23T00:00:20;101561.63;;;12.23;91.43
5126;BME280;63008;53.112;8.896;2022-10-23T00:02:21;101559.03;;;12.18;91.44
5126;BME280;63008;53.112;8.896;2022-10-23T00:04:22;101562.28;;;12.11;91.48
5126;BME280;63008;53.112;8.896;2022-10-23T00:06:27;101562.41;;;12.15;91.46
5126;BME280;63008;53.112;8.896;2022-10-23T00:08:28;101564.38;;;12.14;91.32
5126;BME280;63008;53.112;8.896;2022-10-23T00:10:30;101562.09;;;12.08;91.20
5126;BME280;63008;53.112;8.896;2022-10-23T00:12:31;101555.47;;;12.00;91.06
5126;BME280;63008;53.112;8.896;2022-10-23T00:14:33;101557.41;;;11.91;91.42
5126;BME280;63008;53.112;8.896;2022-10-23T00:16:34;101564.69;;;11.87;91.68
5126;BME280;63008;53.112;8.896;2022-10-23T00:18:36;101557.91;;;11.85;91.54
5126;BME280;63008;53.112;8.896;2022-10-23T00:20:37;101552.06;;;11.86;91.27
5126;BME280;63008;53.112;8.896;2022-10-23T00:22:38;101557.72;;;11.81;91.43
5126;BME280;63008;53.112;8.896;2022-10-23T00:24:39;101566.78;;;11.82;91.38
5126;BME280;63008;53.112;8.896;2022-10-23T00:26:42;101557.72;;;11.73;91.46
5126;BME280;63008;53.112;8.896;2022-10-23T00:28:44;101553.19;;;11.77;91.36
5126;BME280;63008;53.112;8.896;2022-10-23T00:30:45;101559.16;;;11.79;91.19
5126;BME280;63008;53.112;8.896;2022-10-23T00:32:46;101554.19;;;11.81;90.75
5126;BME280;63008;53.112;8.896;2022-10-23T00:34:47;101567.28;;;11.75;90.83
5126;BME280;63008;53.112;8.896;2022-10-23T00:36:48;101559.66;;;11.72;90.89
5126;BME280;63008;53.112;8.896;2022-10-23T00:38:49;101560.94;;;11.75;90.79
5126;BME280;63008;53.112;8.896;2022-10-23T00:40:50;101562.09;;;11.74;90.58
5126;BME280;63008;53.112;8.896;2022-10-23T00:42:51;101556.91;;;11.72;90.57
5126;BME280;63008;53.112;8.896;2022-10-23T00:46:53;101556.75;;;11.69;90.43
5126;BME280;63008;53.112;8.896;2022-10-23T00:48:55;101560.63;;;11.68;90.43
5126;BME280;63008;53.112;8.896;2022-10-23T00:50:56;101553.81;;;11.65;90.56
5126;BME280;63008;53.112;8.896;2022-10-23T00:53:00;101549.47;;;11.73;90.27
5126;BME280;63008;53.112;8.896;2022-10-23T00:55:02;101548.13;;;11.62;90.17
5126;BME280;63008;53.112;8.896;2022-10-23T00:57:07;101544.38;;;11.49;90.67
5126;BME280;63008;53.112;8.896;2022-10-23T00:59:11;101546.47;;;11.52;90.69
5126;BME280;63008;53.112;8.896;2022-10-23T01:01:21;101550.34;;;11.51;90.51
5126;BME280;63008;53.112;8.896;2022-10-23T01:03:25;101545.69;;;11.52;90.25
5126;BME280;63008;53.112;8.896;2022-10-23T01:05:30;101548.59;;;11.55;90.22
5126;BME280;63008;53.112;8.896;2022-10-23T01:07:52;101540.50;;;11.50;90.11
5126;BME280;63008;53.112;8.896;2022-10-23T01:10:13;101549.06;;;11.49;90.07
5126;BME280;63008;53.112;8.896;2022-10-23T01:12:27;101542.63;;;11.53;90.00
5126;BME280;63008;53.112;8.896;2022-10-23T01:14:41;101541.13;;;11.47;89.44
5126;BME280;63008;53.112;8.896;2022-10-23T01:19:10;101537.06;;;11.28;89.90
5126;BME280;63008;53.112;8.896;2022-10-23T01:21:21;101537.19;;;11.23;89.82
5126;BME280;63008;53.112;8.896;2022-10-23T01:23:55;101539.94;;;11.23;89.75
5126;BME280;63008;53.112;8.896;2022-10-23T01:26:03;101533.81;;;11.26;89.63
5126;BME280;63008;53.112;8.896;2022-10-23T01:28:09;101534.44;;;11.23;89.17
5126;BME280;63008;53.112;8.896;2022-10-23T01:30:14;101535.25;;;11.15;89.11
5126;BME280;63008;53.112;8.896;2022-10-23T01:32:27;101536.84;;;11.16;89.08
5126;BME280;63008;53.112;8.896;2022-10-23T01:34:34;101537.50;;;11.13;89.33
5126;BME280;63008;53.112;8.896;2022-10-23T01:36:41;101534.75;;;11.13;89.13
5126;BME280;63008;53.112;8.896;2022-10-23T01:38:55;101542.31;;;11.07;88.81
5126;BME280;63008;53.112;8.896;2022-10-23T01:41:08;101538.91;;;11.02;89.06
5126;BME280;63008;53.112;8.896;2022-10-23T01:43:15;101539.88;;;11.06;88.92
5126;BME280;63008;53.112;8.896;2022-10-23T01:45:22;101543.44;;;11.06;88.84
5126;BME280;63008;53.112;8.896;2022-10-23T01:47:27;101538.25;;;11.05;88.84
5126;BME280;63008;53.112;8.896;2022-10-23T01:49:31;101538.25;;;11.05;88.79
5126;BME280;63008;53.112;8.896;2022-10-23T01:51:33;101538.25;;;11.05;88.61
5126;BME280;63008;53.112;8.896;2022-10-23T01:53:38;101547.97;;;11.02;88.43
5126;BME280;63008;53.112;8.896;2022-10-23T01:55:42;101538.09;;;11.01;88.42
5126;BME280;63008;53.112;8.896;2022-10-23T01:57:44;101546.31;;;10.93;88.39
5126;BME280;63008;53.112;8.896;2022-10-23T01:59:50;101541.25;;;10.87;88.69
5126;BME280;63008;53.112;8.896;2022-10-23T02:01:55;101536.72;;;10.82;88.84
5126;BME280;63008;53.112;8.896;2022-10-23T02:03:57;101543.34;;;10.81;88.64
5126;BME280;63008;53.112;8.896;2022-10-23T02:05:59;101535.59;;;10.83;88.45
5126;BME280;63008;53.112;8.896;2022-10-23T02:08:00;101543.00;;;10.82;88.54
5126;BME280;63008;53.112;8.896;2022-10-23T02:10:05;101544.66;;;10.84;88.56
5126;BME280;63008;53.112;8.896;2022-10-23T02:12:08;101531.41;;;10.86;88.36
5126;BME280;63008;53.112;8.896;2022-10-23T02:14:17;101538.34;;;10.83;88.21
5126;BME280;63008;53.112;8.896;2022-10-23T02:16:34;101526.84;;;10.81;88.22
5126;BME280;63008;53.112;8.896;2022-10-23T02:18:49;101535.84;;;10.73;88.51
5126;BME280;63008;53.112;8.896;2022-10-23T02:20:55;101528.59;;;10.69;88.74
5126;BME280;63008;53.112;8.896;2022-10-23T02:25:16;101523.88;;;10.69;88.78
5126;BME280;63008;53.112;8.896;2022-10-23T02:27:28;101522.72;;;10.62;89.11
5126;BME280;63008;53.112;8.896;2022-10-23T02:29:32;101515.66;;;10.69;88.89
5126;BME280;63008;53.112;8.896;2022-10-23T02:31:35;101501.94;;;10.69;88.76
5126;BME280;63008;53.112;8.896;2022-10-23T02:33:36;101503.06;;;10.68;88.53
5126;BME280;63008;53.112;8.896;2022-10-23T02:35:37;101504.19;;;10.67;88.55
5126;BME280;63008;53.112;8.896;2022-10-23T02:37:38;101511.63;;;10.67;88.23
5126;BME280;63008;53.112;8.896;2022-10-23T02:39:40;101512.75;;;10.66;88.40
5126;BME280;63008;53.112;8.896;2022-10-23T02:41:51;101508.25;;;10.70;88.12
5126;BME280;63008;53.112;8.896;2022-10-23T02:44:16;101503.84;;;10.60;88.02
5126;BME280;63008;53.112;8.896;2022-10-23T02:46:28;101499.44;;;10.51;88.14
5126;BME280;63008;53.112;8.896;2022-10-23T02:48:40;101503.91;;;10.47;88.36
5126;BME280;63008;53.112;8.896;2022-10-23T02:50:50;101497.63;;;10.46;88.24
5126;BME280;63008;53.112;8.896;2022-10-23T02:52:58;101496.19;;;10.49;88.16
5126;BME280;63008;53.112;8.896;2022-10-23T02:55:18;101489.69;;;10.45;88.13
5126;BME280;63008;53.112;8.896;2022-10-23T02:57:30;101484.53;;;10.43;88.38
5126;BME280;63008;53.112;8.896;2022-10-23T02:59:36;101493.88;;;10.42;88.19
5126;BME280;63008;53.112;8.896;2022-10-23T03:01:50;101500.50;;;10.41;88.29
5126;BME280;63008;53.112;8.896;2022-10-23T03:03:55;101501.72;;;10.35;88.36
5126;BME280;63008;53.112;8.896;2022-10-23T03:05:57;101486.72;;;10.33;88.30
5126;BME280;63008;53.112;8.896;2022-10-23T03:07:58;101490.13;;;10.38;88.04
5126;BME280;63008;53.112;8.896;2022-10-23T03:10:02;101488.16;;;10.30;87.94
5126;BME280;63008;53.112;8.896;2022-10-23T03:12:03;101487.81;;;10.23;87.97
5126;BME280;63008;53.112;8.896;2022-10-23T03:14:04;101481.81;;;10.21;87.94
5126;BME280;63008;53.112;8.896;2022-10-23T03:16:05;101492.09;;;10.16;88.14
5126;BME280;63008;53.112;8.896;2022-10-23T03:18:06;101489.47;;;10.11;88.05
5126;BME280;63008;53.112;8.896;2022-10-23T03:20:08;101485.44;;;10.08;88.48
5126;BME280;63008;53.112;8.896;2022-10-23T03:22:09;101485.59;;;10.12;88.25
5126;BME280;63008;53.112;8.896;2022-10-23T03:24:10;101480.44;;;10.10;88.03
5126;BME280;63008;53.112;8.896;2022-10-23T03:26:11;101479.03;;;10.13;88.15
5126;BME280;63008;53.112;8.896;2022-10-23T03:28:12;101477.28;;;10.17;88.23
5126;BME280;63008;53.112;8.896;2022-10-23T03:30:14;101476.94;;;10.18;87.87
5126;BME280;63008;53.112;8.896;2022-10-23T03:32:15;101467.91;;;10.18;88.02
5126;BME280;63008;53.112;8.896;2022-10-23T03:34:16;101469.03;;;10.17;88.33
5126;BME280;63008;53.112;8.896;2022-10-23T03:36:17;101470.97;;;10.16;87.94
5126;BME280;63008;53.112;8.896;2022-10-23T03:38:18;101472.22;;;10.10;87.74
5126;BME280;63008;53.112;8.896;2022-10-23T03:40:19;101472.44;;;10.00;88.00
5126;BME280;63008;53.112;8.896;2022-10-23T03:42:20;101465.16;;;9.96;88.49
5126;BME280;63008;53.112;8.896;2022-10-23T03:44:21;101461.31;;;9.97;88.31
5126;BME280;63008;53.112;8.896;2022-10-23T03:46:22;101449.50;;;9.96;88.20
5126;BME280;63008;53.112;8.896;2022-10-23T03:48:24;101453.63;;;9.85;88.71
5126;BME280;63008;53.112;8.896;2022-10-23T03:50:24;101452.81;;;9.85;88.72
5126;BME280;63008;53.112;8.896;2022-10-23T03:52:26;101457.59;;;9.79;89.13
5126;BME280;63008;53.112;8.896;2022-10-23T03:54:27;101454.25;;;9.82;89.01
5126;BME280;63008;53.112;8.896;2022-10-23T03:56:29;101449.19;;;9.76;89.10
5126;BME280;63008;53.112;8.896;2022-10-23T03:58:30;101447.56;;;9.75;89.57
5126;BME280;63008;53.112;8.896;2022-10-23T04:00:31;101438.91;;;9.81;89.36
5126;BME280;63008;53.112;8.896;2022-10-23T04:02:32;101447.63;;;9.83;89.75
5126;BME280;63008;53.112;8.896;2022-10-23T04:04:33;101449.88;;;9.81;89.68
5126;BME280;63008;53.112;8.896;2022-10-23T04:06:34;101443.34;;;9.69;89.84
5126;BME280;63008;53.112;8.896;2022-10-23T04:08:36;101454.38;;;9.77;89.80
5126;BME280;63008;53.112;8.896;2022-10-23T04:10:37;101451.63;;;9.77;89.66
5126;BME280;63008;53.112;8.896;2022-10-23T04:12:38;101454.59;;;9.67;89.79
5126;BME280;63008;53.112;8.896;2022-10-23T04:14:39;101467.44;;;9.58;90.09
5126;BME280;63008;53.112;8.896;2022-10-23T04:16:42;101465.25;;;9.69;90.33
5126;BME280;63008;53.112;8.896;2022-10-23T04:18:43;101469.31;;;9.71;90.08
5126;BME280;63008;53.112;8.896;2022-10-23T04:20:47;101462.41;;;9.74;89.94
5126;BME280;63008;53.112;8.896;2022-10-23T04:22:49;101460.97;;;9.76;89.62
5126;BME280;63008;53.112;8.896;2022-10-23T04:24:49;101452.13;;;9.79;89.66
5126;BME280;63008;53.112;8.896;2022-10-23T04:26:51;101456.81;;;9.79;89.55
5126;BME280;63008;53.112;8.896;2022-10-23T04:28:52;101453.88;;;9.75;89.20
5126;BME280;63008;53.112;8.896;2022-10-23T04:30:53;101445.31;;;9.77;89.21
5126;BME280;63008;53.112;8.896;2022-10-23T04:32:54;101444.75;;;9.66;89.50
5126;BME280;63008;53.112;8.896;2022-10-23T04:34:54;101441.16;;;9.57;89.76
5126;BME280;63008;53.112;8.896;2022-10-23T04:36:55;101446.22;;;9.64;89.81
5126;BME280;63008;53.112;8.896;2022-10-23T04:38:56;101452.69;;;9.68;89.56
5126;BME280;63008;53.112;8.896;2022-10-23T04:40:57;101444.25;;;9.64;89.35
5126;BME280;63008;53.112;8.896;2022-10-23T04:42:58;101442.78;;;9.58;89.50
5126;BME280;63008;53.112;8.896;2022-10-23T04:44:59;101433.84;;;9.53;89.66
5126;BME280;63008;53.112;8.896;2022-10-23T04:47:00;101438.34;;;9.49;89.95
5126;BME280;63008;53.112;8.896;2022-10-23T04:49:01;101434.00;;;9.48;90.12
5126;BME280;63008;53.112;8.896;2022-10-23T04:51:04;101440.75;;;9.50;90.20
5126;BME280;63008;53.112;8.896;2022-10-23T04:53:05;101439.06;;;9.41;90.20
5126;BME280;63008;53.112;8.896;2022-10-23T04:55:07;101444.53;;;9.41;90.40
5126;BME280;63008;53.112;8.896;2022-10-23T04:57:08;101441.63;;;9.37;90.41
5126;BME280;63008;53.112;8.896;2022-10-23T04:59:09;101439.06;;;9.41;90.32
5126;BME280;63008;53.112;8.896;2022-10-23T05:01:10;101445.25;;;9.46;90.45
5126;BME280;63008;53.112;8.896;2022-10-23T05:03:11;101445.44;;;9.50;90.11
5126;BME280;63008;53.112;8.896;2022-10-23T05:05:12;101439.03;;;9.54;90.06
5126;BME280;63008;53.112;8.896;2022-10-23T05:07:13;101442.28;;;9.56;90.12
5126;BME280;63008;53.112;8.896;2022-10-23T05:09:14;101447.25;;;9.54;89.81
5126;BME280;63008;53.112;8.896;2022-10-23T05:11:15;101444.81;;;9.53;90.40
5126;BME280;63008;53.112;8.896;2022-10-23T05:13:17;101446.31;;;9.59;90.44
5126;BME280;63008;53.112;8.896;2022-10-23T05:15:19;101442.34;;;9.65;90.47
5126;BME280;63008;53.112;8.896;2022-10-23T05:17:27;101440.41;;;9.65;90.23
5126;BME280;63008;53.112;8.896;2022-10-23T05:19:43;101445.59;;;9.67;90.15
5126;BME280;63008;53.112;8.896;2022-10-23T05:21:48;101449.66;;;9.69;90.01
5126;BME280;63008;53.112;8.896;2022-10-23T05:23:55;101448.25;;;9.58;89.85
5126;BME280;63008;53.112;8.896;2022-10-23T05:25:57;101452.53;;;9.51;90.65
5126;BME280;63008;53.112;8.896;2022-10-23T05:27:58;101447.28;;;9.41;90.75
5126;BME280;63008;53.112;8.896;2022-10-23T05:29:59;101442.94;;;9.40;91.00
5126;BME280;63008;53.112;8.896;2022-10-23T05:32:01;101445.16;;;9.38;91.00
5126;BME280;63008;53.112;8.896;2022-10-23T05:34:03;101434.72;;;9.40;90.93
5126;BME280;63008;53.112;8.896;2022-10-23T05:36:04;101432.47;;;9.42;90.78
5126;BME280;63008;53.112;8.896;2022-10-23T05:38:06;101432.72;;;9.32;90.80
5126;BME280;63008;53.112;8.896;2022-10-23T05:40:07;101434.72;;;9.40;90.81
5126;BME280;63008;53.112;8.896;2022-10-23T05:42:08;101431.47;;;9.38;90.65
5126;BME280;63008;53.112;8.896;2022-10-23T05:44:09;101445.66;;;9.40;90.52
5126;BME280;63008;53.112;8.896;2022-10-23T05:46:10;101439.50;;;9.34;90.49
5126;BME280;63008;53.112;8.896;2022-10-23T05:48:14;101425.38;;;9.41;90.28
5126;BME280;63008;53.112;8.896;2022-10-23T05:50:15;101416.97;;;9.37;89.97
5126;BME280;63008;53.112;8.896;2022-10-23T05:52:17;101408.84;;;9.32;90.20
5126;BME280;63008;53.112;8.896;2022-10-23T05:54:19;101406.94;;;9.33;90.35
5126;BME280;63008;53.112;8.896;2022-10-23T05:56:20;101413.53;;;9.32;90.50
5126;BME280;63008;53.112;8.896;2022-10-23T05:58:21;101405.31;;;9.32;90.38
5126;BME280;63008;53.112;8.896;2022-10-23T06:00:23;101409.47;;;9.29;90.32
5126;BME280;63008;53.112;8.896;2022-10-23T06:02:24;101398.53;;;9.29;90.28
5126;BME280;63008;53.112;8.896;2022-10-23T06:04:25;101408.34;;;9.30;90.33
5126;BME280;63008;53.112;8.896;2022-10-23T06:06:26;101403.22;;;9.29;90.21
5126;BME280;63008;53.112;8.896;2022-10-23T06:08:28;101398.16;;;9.44;89.83
5126;BME280;63008;53.112;8.896;2022-10-23T06:10:30;101393.19;;;9.46;89.27
5126;BME280;63008;53.112;8.896;2022-10-23T06:12:31;101393.94;;;9.38;89.44
5126;BME280;63008;53.112;8.896;2022-10-23T06:14:32;101390.88;;;9.40;89.52
5126;BME280;63008;53.112;8.896;2022-10-23T06:16:33;101392.94;;;9.34;89.55
5126;BME280;63008;53.112;8.896;2022-10-23T06:18:34;101400.47;;;9.29;90.02
5126;BME280;63008;53.112;8.896;2022-10-23T06:20:36;101408.78;;;9.24;90.16
5126;BME280;63008;53.112;8.896;2022-10-23T06:22:38;101399.84;;;9.32;90.11
5126;BME280;63008;53.112;8.896;2022-10-23T06:24:39;101401.75;;;9.31;89.98
5126;BME280;63008;53.112;8.896;2022-10-23T06:26:40;101404.41;;;9.36;90.05
5126;BME280;63008;53.112;8.896;2022-10-23T06:28:41;101400.84;;;9.36;89.73
5126;BME280;63008;53.112;8.896;2022-10-23T06:30:45;101400.63;;;9.32;89.64
5126;BME280;63008;53.112;8.896;2022-10-23T06:32:46;101395.69;;;9.34;89.81
5126;BME280;63008;53.112;8.896;2022-10-23T06:34:47;101395.06;;;9.37;89.72
5126;BME280;63008;53.112;8.896;2022-10-23T06:36:48;101397.88;;;9.46;89.39
5126;BME280;63008;53.112;8.896;2022-10-23T06:38:49;101389.88;;;9.58;89.17
5126;BME280;63008;53.112;8.896;2022-10-23T06:40:54;101391.34;;;9.55;88.98
5126;BME280;63008;53.112;8.896;2022-10-23T06:42:55;101396.13;;;9.50;89.43
5126;BME280;63008;53.112;8.896;2022-10-23T06:44:56;101384.75;;;9.56;89.37
5126;BME280;63008;53.112;8.896;2022-10-23T06:46:57;101397.81;;;9.59;89.46
5126;BME280;63008;53.112;8.896;2022-10-23T06:49:00;101397.50;;;9.61;89.87
5126;BME280;63008;53.112;8.896;2022-10-23T06:51:06;101401.75;;;9.67;89.56
5126;BME280;63008;53.112;8.896;2022-10-23T06:53:07;101401.31;;;9.73;89.69
5126;BME280;63008;53.112;8.896;2022-10-23T06:55:09;101402.28;;;9.77;89.42
5126;BME280;63008;53.112;8.896;2022-10-23T06:57:10;101400.69;;;9.76;89.85
5126;BME280;63008;53.112;8.896;2022-10-23T06:59:11;101397.63;;;9.78;89.85
5126;BME280;63008;53.112;8.896;2022-10-23T07:01:13;101400.88;;;9.80;89.84
5126;BME280;63008;53.112;8.896;2022-10-23T07:03:15;101394.56;;;9.79;89.97
5126;BME280;63008;53.112;8.896;2022-10-23T07:05:17;101398.63;;;9.82;90.53
5126;BME280;63008;53.112;8.896;2022-10-23T07:07:18;101397.56;;;9.91;90.33
5126;BME280;63008;53.112;8.896;2022-10-23T07:09:19;101390.81;;;9.97;90.39
5126;BME280;63008;53.112;8.896;2022-10-23T07:11:20;101389.38;;;10.00;90.44
5126;BME280;63008;53.112;8.896;2022-10-23T07:13:21;101393.44;;;10.02;90.37
5126;BME280;63008;53.112;8.896;2022-10-23T07:15:22;101387.84;;;10.07;90.21
5126;BME280;63008;53.112;8.896;2022-10-23T07:17:23;101386.44;;;10.18;90.26
5126;BME280;63008;53.112;8.896;2022-10-23T07:19:24;101392.28;;;10.25;89.98
5126;BME280;63008;53.112;8.896;2022-10-23T07:21:26;101396.66;;;10.26;90.09
5126;BME280;63008;53.112;8.896;2022-10-23T07:23:30;101398.94;;;10.33;90.28
5126;BME280;63008;53.112;8.896;2022-10-23T07:25:31;101394.91;;;10.39;90.10
5126;BME280;63008;53.112;8.896;2022-10-23T07:27:35;101399.13;;;10.45;90.21
5126;BME280;63008;53.112;8.896;2022-10-23T07:29:36;101400.28;;;10.52;90.08
5126;BME280;63008;53.112;8.896;2022-10-23T07:31:38;101403.22;;;10.56;90.20
5126;BME280;63008;53.112;8.896;2022-10-23T07:33:39;101395.81;;;10.65;90.47
5126;BME280;63008;53.112;8.896;2022-10-23T07:35:40;101403.91;;;10.61;90.62
5126;BME280;63008;53.112;8.896;2022-10-23T07:37:41;101402.31;;;10.69;90.78
5126;BME280;63008;53.112;8.896;2022-10-23T07:39:42;101397.13;;;10.67;91.21
5126;BME280;63008;53.112;8.896;2022-10-23T07:41:42;101401.19;;;10.78;91.26
5126;BME280;63008;53.112;8.896;2022-10-23T07:43:43;101394.59;;;10.88;90.73
5126;BME280;63008;53.112;8.896;2022-10-23T07:45:48;101403.19;;;11.03;90.02
5126;BME280;63008;53.112;8.896;2022-10-23T07:47:50;101396.25;;;11.05;90.16
5126;BME280;63008;53.112;8.896;2022-10-23T07:49:51;101394.47;;;11.09;89.89
5126;BME280;63008;53.112;8.896;2022-10-23T07:51:52;101393.84;;;11.21;89.59
5126;BME280;63008;53.112;8.896;2022-10-23T07:53:53;101388.50;;;11.16;89.72
5126;BME280;63008;53.112;8.896;2022-10-23T07:55:56;101389.16;;;11.21;89.93
5126;BME280;63008;53.112;8.896;2022-10-23T07:57:58;101388.81;;;11.23;89.80
5126;BME280;63008;53.112;8.896;2022-10-23T07:59:59;101394.66;;;11.21;90.22
5126;BME280;63008;53.112;8.896;2022-10-23T08:02:00;101387.22;;;11.22;90.21
5126;BME280;63008;53.112;8.896;2022-10-23T08:04:01;101380.44;;;11.36;90.09
5126;BME280;63008;53.112;8.896;2022-10-23T08:06:02;101385.44;;;11.43;89.92
5126;BME280;63008;53.112;8.896;2022-10-23T08:08:03;101384.97;;;11.58;89.74
5126;BME280;63008;53.112;8.896;2022-10-23T08:10:05;101380.59;;;11.65;89.38
5126;BME280;63008;53.112;8.896;2022-10-23T08:12:06;101376.06;;;11.69;89.47
5126;BME280;63008;53.112;8.896;2022-10-23T08:14:08;101384.66;;;11.76;89.47
5126;BME280;63008;53.112;8.896;2022-10-23T08:16:09;101376.69;;;11.83;89.38
5126;BME280;63008;53.112;8.896;2022-10-23T08:18:10;101380.75;;;11.86;90.00
5126;BME280;63008;53.112;8.896;2022-10-23T08:20:11;101375.72;;;11.88;90.09
5126;BME280;63008;53.112;8.896;2022-10-23T08:22:13;101373.47;;;11.81;90.70
5126;BME280;63008;53.112;8.896;2022-10-23T08:24:14;101380.25;;;11.92;90.86
5126;BME280;63008;53.112;8.896;2022-10-23T08:26:19;101383.94;;;12.05;90.09
5126;BME280;63008;53.112;8.896;2022-10-23T08:28:20;101385.06;;;12.04;90.27
5126;BME280;63008;53.112;8.896;2022-10-23T08:30:21;101377.44;;;12.09;90.48
5126;BME280;63008;53.112;8.896;2022-10-23T08:32:22;101377.59;;;12.13;90.22
5126;BME280;63008;53.112;8.896;2022-10-23T08:34:23;101366.91;;;12.11;90.57
5126;BME280;63008;53.112;8.896;2022-10-23T08:36:26;101367.84;;;12.24;90.85
5126;BME280;63008;53.112;8.896;2022-10-23T08:38:27;101367.97;;;12.36;90.73
5126;BME280;63008;53.112;8.896;2022-10-23T08:40:29;101363.38;;;12.48;90.15
5126;BME280;63008;53.112;8.896;2022-10-23T08:42:32;101368.72;;;12.45;90.38
5126;BME280;63008;53.112;8.896;2022-10-23T08:44:48;101364.13;;;12.57;90.02
5126;BME280;63008;53.112;8.896;2022-10-23T08:51:35;101348.16;;;12.71;90.25
5126;BME280;63008;53.112;8.896;2022-10-23T08:54:02;101340.78;;;12.83;89.90
5126;BME280;63008;53.112;8.896;2022-10-23T08:56:34;101345.63;;;12.95;89.58
5126;BME280;63008;53.112;8.896;2022-10-23T09:01:42;101345.50;;;13.12;89.89
5126;BME280;63008;53.112;8.896;2022-10-23T09:03:44;101351.81;;;13.12;89.71
5126;BME280;63008;53.112;8.896;2022-10-23T09:08:32;101352.34;;;13.26;90.13
5126;BME280;63008;53.112;8.896;2022-10-23T09:12:42;101343.50;;;13.53;89.27
5126;BME280;63008;53.112;8.896;2022-10-23T09:14:54;101348.69;;;13.55;89.48
5126;BME280;63008;53.112;8.896;2022-10-23T09:17:08;101336.66;;;13.59;88.22
5126;BME280;63008;53.112;8.896;2022-10-23T09:19:13;101337.56;;;13.63;89.14
5126;BME280;63008;53.112;8.896;2022-10-23T09:21:15;101332.31;;;13.70;89.41
5126;BME280;63008;53.112;8.896;2022-10-23T09:23:18;101329.91;;;13.69;89.18
5126;BME280;63008;53.112;8.896;2022-10-23T09:25:26;101334.72;;;13.72;89.38
5126;BME280;63008;53.112;8.896;2022-10-23T09:27:27;101340.41;;;13.87;89.41
5126;BME280;63008;53.112;8.896;2022-10-23T09:29:31;101337.22;;;13.97;88.47
5126;BME280;63008;53.112;8.896;2022-10-23T09:31:32;101330.78;;;13.93;88.01
5126;BME280;63008;53.112;8.896;2022-10-23T09:33:33;101326.19;;;13.97;88.51
5126;BME280;63008;53.112;8.896;2022-10-23T09:35:36;101322.41;;;14.02;87.75
5126;BME280;63008;53.112;8.896;2022-10-23T09:37:44;101318.38;;;14.11;88.02
5126;BME280;63008;53.112;8.896;2022-10-23T09:39:45;101317.22;;;14.12;87.39
5126;BME280;63008;53.112;8.896;2022-10-23T09:41:46;101325.31;;;14.17;87.43
5126;BME280;63008;53.112;8.896;2022-10-23T09:46:08;101328.31;;;14.36;86.57
5126;BME280;63008;53.112;8.896;2022-10-23T09:48:15;101318.53;;;14.51;86.96
5126;BME280;63008;53.112;8.896;2022-10-23T09:50:20;101318.44;;;14.47;86.10
5126;BME280;63008;53.112;8.896;2022-10-23T09:52:25;101317.03;;;14.65;86.28
5126;BME280;63008;53.112;8.896;2022-10-23T09:54:36;101317.38;;;14.63;86.01
5126;BME280;63008;53.112;8.896;2022-10-23T09:56:40;101320.00;;;14.84;85.32
5126;BME280;63008;53.112;8.896;2022-10-23T09:58:52;101317.44;;;15.03;84.88
5126;BME280;63008;53.112;8.896;2022-10-23T10:00:54;101312.16;;;14.98;83.91
5126;BME280;63008;53.112;8.896;2022-10-23T10:02:58;101323.97;;;15.10;83.99
5126;BME280;63008;53.112;8.896;2022-10-23T10:07:25;101321.25;;;15.38;82.46
5126;BME280;63008;53.112;8.896;2022-10-23T10:09:26;101311.47;;;15.28;82.13
5126;BME280;63008;53.112;8.896;2022-10-23T10:16:31;101309.34;;;15.49;80.90
5126;BME280;63008;53.112;8.896;2022-10-23T10:18:41;101311.94;;;15.30;82.05
5126;BME280;63008;53.112;8.896;2022-10-23T10:21:01;101315.22;;;15.48;81.43
5126;BME280;63008;53.112;8.896;2022-10-23T10:23:24;101311.06;;;15.54;81.31
5126;BME280;63008;53.112;8.896;2022-10-23T10:25:40;101305.44;;;15.66;80.40
5126;BME280;63008;53.112;8.896;2022-10-23T10:28:02;101291.41;;;15.59;81.73
5126;BME280;63008;53.112;8.896;2022-10-23T10:30:14;101294.47;;;15.69;81.80
5126;BME280;63008;53.112;8.896;2022-10-23T10:32:40;101291.91;;;15.92;80.44
5126;BME280;63008;53.112;8.896;2022-10-23T10:35:18;101291.44;;;15.74;80.70
5126;BME280;63008;53.112;8.896;2022-10-23T10:37:39;101277.34;;;15.79;80.02
5126;BME280;63008;53.112;8.896;2022-10-23T10:39:52;101272.06;;;15.74;81.51
5126;BME280;63008;53.112;8.896;2022-10-23T10:42:15;101271.38;;;15.77;81.20
5126;BME280;63008;53.112;8.896;2022-10-23T10:44:37;101260.47;;;15.84;80.80
5126;BME280;63008;53.112;8.896;2022-10-23T10:47:21;101262.72;;;15.94;80.92
5126;BME280;63008;53.112;8.896;2022-10-23T10:49:38;101274.13;;;16.08;79.99
5126;BME280;63008;53.112;8.896;2022-10-23T10:54:06;101257.91;;;16.07;80.57
5126;BME280;63008;53.112;8.896;2022-10-23T10:56:15;101256.09;;;15.99;80.03
5126;BME280;63008;53.112;8.896;2022-10-23T11:00:42;101248.88;;;16.41;79.82
5126;BME280;63008;53.112;8.896;2022-10-23T11:02:59;101240.63;;;16.44;79.08
5126;BME280;63008;53.112;8.896;2022-10-23T11:07:23;101244.53;;;16.58;78.48
5126;BME280;63008;53.112;8.896;2022-10-23T11:09:27;101234.94;;;16.90;76.47
5126;BME280;63008;53.112;8.896;2022-10-23T11:11:34;101228.94;;;17.26;75.79
5126;BME280;63008;53.112;8.896;2022-10-23T11:13:37;101223.25;;;17.19;76.48
5126;BME280;63008;53.112;8.896;2022-10-23T11:15:41;101217.84;;;17.26;76.73
5126;BME280;63008;53.112;8.896;2022-10-23T11:17:47;101212.16;;;17.19;76.03
5126;BME280;63008;53.112;8.896;2022-10-23T11:20:07;101211.13;;;17.46;76.12
5126;BME280;63008;53.112;8.896;2022-10-23T11:22:30;101208.41;;;17.72;73.47
5126;BME280;63008;53.112;8.896;2022-10-23T11:29:23;101215.31;;;17.37;75.84
5126;BME280;63008;53.112;8.896;2022-10-23T11:31:38;101199.59;;;17.44;75.36
5126;BME280;63008;53.112;8.896;2022-10-23T11:34:42;101189.50;;;17.36;75.59
5126;BME280;63008;53.112;8.896;2022-10-23T11:36:40;101198.47;;;17.30;74.95
5126;BME280;63008;53.112;8.896;2022-10-23T11:38:44;101203.28;;;17.52;74.80
5126;BME280;63008;53.112;8.896;2022-10-23T11:40:49;101192.25;;;17.55;73.61
5126;BME280;63008;53.112;8.896;2022-10-23T11:42:51;101188.97;;;17.50;74.33